Time;durP1;ratioP1;P1;durP2;ratioP2;P2;SDS_P1;SDS_P2;PMS_P1;PMS_P2;Temp;Humidity;BMP_temperature;BMP_pressure;BME280_temperature;BME280_humidity;BME280_pressure;Samples;Min_cycle;Max_cycle;Signal;HPM_P1;HPM_P2
2021/03/05 00:00:39;;;;;;;5.05;1.27;;;;;;;1.83;83.14;101993.63;6224027;28;20046;-71
2021/03/05 00:03:40;;;;;;;2.65;1.48;;;;;;;1.80;83.27;102002.25;6224461;28;20061;-72
2021/03/05 00:06:41;;;;;;;5.30;1.27;;;;;;;1.74;82.14;101999.63;6224414;28;20054;-71
2021/03/05 00:09:43;;;;;;;3.75;1.23;;;;;;;1.79;82.07;102008.28;6223461;28;20384;-68
2021/03/05 00:12:44;;;;;;;11.70;1.70;;;;;;;1.51;82.42;102010.78;6223452;28;20046;-68
2021/03/05 00:15:45;;;;;;;4.35;1.50;;;;;;;1.58;81.33;102008.19;6223896;28;20053;-69
2021/03/05 00:18:46;;;;;;;2.70;1.20;;;;;;;1.45;81.18;102013.34;6224070;28;20088;-71
2021/03/05 00:21:46;;;;;;;3.03;1.33;;;;;;;1.52;79.87;102028.03;6222870;28;20050;-71
2021/03/05 00:24:48;;;;;;;6.80;1.50;;;;;;;1.43;80.41;102022.81;6223379;28;20399;-71
2021/03/05 00:27:49;;;;;;;16.65;3.55;;;;;;;1.29;79.00;102023.63;6223787;28;20049;-71
2021/03/05 00:30:50;;;;;;;5.75;1.15;;;;;;;1.32;80.15;102031.38;6222472;28;20534;-70
2021/03/05 00:33:54;;;;;;;4.85;1.23;;;;;;;1.22;80.10;102040.81;6224445;28;20085;-71
2021/03/05 00:36:55;;;;;;;14.30;2.67;;;;;;;1.10;81.90;102044.22;6223292;28;20104;-71
2021/03/05 00:39:56;;;;;;;6.22;1.42;;;;;;;1.11;80.81;102048.53;6223241;28;20046;-71
2021/03/05 00:42:57;;;;;;;10.32;2.03;;;;;;;1.14;80.04;102064.09;6222350;28;20487;-71
2021/03/05 00:45:59;;;;;;;4.22;1.20;;;;;;;1.03;80.48;102057.97;6223508;28;20054;-71
2021/03/05 00:49:00;;;;;;;4.43;1.20;;;;;;;1.09;79.09;102060.63;6221158;28;20041;-71
2021/03/05 00:52:01;;;;;;;6.00;1.20;;;;;;;0.92;79.67;102060.47;6279434;23;20075;-69
2021/03/05 00:55:03;;;;;;;10.93;1.45;;;;;;;0.99;79.11;102066.56;6271807;28;20055;-69
2021/03/05 00:58:04;;;;;;;8.65;1.33;;;;;;;0.86;78.92;102060.41;6272236;28;20052;-68
2021/03/05 01:01:05;;;;;;;9.95;1.52;;;;;;;0.91;79.38;102069.13;6272381;28;20044;-69
2021/03/05 01:04:06;;;;;;;8.73;1.63;;;;;;;0.67;80.38;102069.75;6252388;28;20045;-69
2021/03/05 01:07:08;;;;;;;3.67;1.17;;;;;;;0.62;82.33;102074.03;6247406;28;20046;-69
2021/03/05 01:10:11;;;;;;;3.17;1.10;;;;;;;0.56;81.05;102080.88;6247261;28;20045;-69
2021/03/05 01:13:12;;;;;;;8.55;1.20;;;;;;;0.41;82.05;102087.63;6247049;28;20049;-69
2021/03/05 01:16:13;;;;;;;2.55;1.13;;;;;;;0.38;82.87;102082.44;6246417;28;20056;-69
2021/03/05 01:19:15;;;;;;;8.35;1.27;;;;;;;0.39;83.13;102094.50;6259327;28;20106;-67
2021/03/05 01:22:16;;;;;;;6.78;1.40;;;;;;;0.41;82.21;102094.50;6270299;28;20425;-67
2021/03/05 01:25:20;;;;;;;7.07;1.45;;;;;;;0.39;82.67;102096.22;6271747;28;20080;-67
2021/03/05 01:28:20;;;;;;;4.03;1.50;;;;;;;0.30;82.62;102096.13;6271866;28;20048;-67
2021/03/05 01:31:21;;;;;;;6.47;1.20;;;;;;;0.21;82.87;102100.34;6271418;28;20076;-67
2021/03/05 01:34:22;;;;;;;18.65;5.07;;;;;;;0.12;82.98;102102.81;6269558;28;20166;-67
2021/03/05 01:37:23;;;;;;;6.68;1.20;;;;;;;0.10;84.07;102107.13;6271607;28;20081;-67
2021/03/05 01:40:31;;;;;;;13.80;1.63;;;;;;;0.15;83.58;102109.75;6271498;28;20045;-67
2021/03/05 01:43:33;;;;;;;3.90;2.03;;;;;;;0.26;80.99;102113.31;6271386;28;20049;-67
2021/03/05 01:46:34;;;;;;;3.78;1.20;;;;;;;0.19;81.78;102111.53;6271534;28;20052;-67
2021/03/05 01:49:38;;;;;;;5.32;1.30;;;;;;;0.08;84.33;102111.38;6271584;28;20060;-67
2021/03/05 01:52:44;;;;;;;5.00;1.30;;;;;;;0.06;83.51;102113.09;6271018;28;20053;-67
2021/03/05 01:55:46;;;;;;;7.53;1.73;;;;;;;0.12;82.85;102115.75;6271633;28;20060;-67
2021/03/05 01:58:47;;;;;;;5.30;1.77;;;;;;;-0.05;84.16;102120.69;6271284;28;20045;-67
2021/03/05 02:01:48;;;;;;;4.78;1.67;;;;;;;-0.10;85.69;102131.81;6271144;28;20081;-67
2021/03/05 02:04:49;;;;;;;7.20;1.80;;;;;;;-0.14;86.23;102130.91;6269543;28;20056;-67
2021/03/05 02:07:50;;;;;;;7.75;1.98;;;;;;;-0.13;86.98;102134.41;6273533;28;20442;-67
2021/03/05 02:10:51;;;;;;;9.70;1.90;;;;;;;-0.16;85.25;102136.94;6275901;28;20126;-67
2021/03/05 02:13:55;;;;;;;11.23;2.20;;;;;;;-0.20;87.15;102137.72;6276152;28;20049;-67
2021/03/05 02:17:01;;;;;;;6.85;1.70;;;;;;;-0.19;84.69;102139.47;6276190;28;20049;-68
2021/03/05 02:20:11;;;;;;;8.43;2.50;;;;;;;-0.33;86.03;102152.19;6275846;28;20049;-67
2021/03/05 02:23:27;;;;;;;3.13;1.45;;;;;;;-0.37;85.47;102158.16;6275924;28;20516;-67
2021/03/05 02:26:53;;;;;;;9.57;1.70;;;;;;;-0.32;85.85;102159.06;6275924;28;20049;-67
2021/03/05 02:30:31;;;;;;;5.47;1.35;;;;;;;-0.41;86.61;102164.13;6275746;28;20045;-67
2021/03/05 02:33:41;;;;;;;5.70;1.88;;;;;;;-0.49;88.86;102176.94;6274058;28;20052;-68
2021/03/05 02:40:26;;;;;;;5.10;1.17;;;;;;;-0.56;86.96;102180.25;6275430;28;19912;-68
2021/03/05 02:43:29;;;;;;;19.45;3.28;;;;;;;-0.62;87.28;102182.75;6275557;28;20053;-68
2021/03/05 02:46:31;;;;;;;8.90;2.22;;;;;;;-0.56;86.11;102181.13;6275495;28;20492;-67
2021/03/05 02:49:34;;;;;;;9.55;1.58;;;;;;;-0.54;86.61;102182.03;6275419;28;20049;-68
2021/03/05 02:52:39;;;;;;;6.03;1.50;;;;;;;-0.64;88.26;102197.31;6274918;28;20087;-67
2021/03/05 02:55:41;;;;;;;6.38;1.77;;;;;;;-0.72;89.13;102192.06;6275717;28;20048;-67
2021/03/05 02:58:47;;;;;;;3.78;1.40;;;;;;;-0.70;87.10;102202.41;6275323;28;20060;-67
2021/03/05 03:01:48;;;;;;;3.10;1.40;;;;;;;-0.74;88.43;102198.91;6274799;28;20053;-67
2021/03/05 03:04:51;;;;;;;6.60;1.80;;;;;;;-0.75;89.20;102206.63;6254754;28;20076;-68
2021/03/05 03:07:53;;;;;;;7.20;1.33;;;;;;;-0.81;87.50;102205.69;6250185;28;20046;-67
2021/03/05 03:10:54;;;;;;;6.85;1.50;;;;;;;-0.94;87.71;102208.88;6251091;28;20055;-68
2021/03/05 03:13:55;;;;;;;8.77;1.50;;;;;;;-0.87;87.83;102218.47;6274823;28;20083;-67
2021/03/05 03:16:57;;;;;;;6.63;1.42;;;;;;;-1.05;89.05;102215.56;6274896;28;20102;-67
2021/03/05 03:20:00;;;;;;;6.50;1.30;;;;;;;-0.96;89.10;102222.59;6273535;28;20049;-67
2021/03/05 03:23:03;;;;;;;7.57;1.45;;;;;;;-1.06;88.66;102224.16;6274605;28;20056;-67
2021/03/05 03:26:05;;;;;;;5.85;1.52;;;;;;;-1.05;89.53;102229.31;6274498;28;20515;-67
2021/03/05 03:29:06;;;;;;;3.97;1.48;;;;;;;-1.17;90.17;102229.13;6274736;28;20076;-67
2021/03/05 03:32:10;;;;;;;4.88;1.05;;;;;;;-1.12;90.35;102222.31;6271892;28;20056;-67
2021/03/05 03:35:13;;;;;;;6.10;1.55;;;;;;;-1.11;91.81;102233.50;6249451;28;20111;-67
2021/03/05 03:38:15;;;;;;;10.27;2.08;;;;;;;-1.09;91.63;102232.72;6268032;28;20056;-67
2021/03/05 03:41:16;;;;;;;7.13;1.13;;;;;;;-1.08;89.99;102229.28;6268450;28;20053;-67
2021/03/05 03:44:17;;;;;;;9.70;1.65;;;;;;;-1.12;90.87;102231.78;6249921;28;20057;-67
2021/03/05 03:47:21;;;;;;;6.63;1.55;;;;;;;-1.08;90.44;102236.16;6255854;28;20494;-67
2021/03/05 03:50:27;;;;;;;11.02;1.45;;;;;;;-1.07;89.51;102243.03;6273889;28;20102;-67
2021/03/05 03:53:30;;;;;;;14.18;1.60;;;;;;;-1.08;90.28;102247.34;6273588;28;20052;-67
2021/03/05 03:56:35;;;;;;;3.42;1.63;;;;;;;-1.18;90.82;102252.28;6273894;28;20056;-67
2021/03/05 03:59:38;;;;;;;3.05;1.60;;;;;;;-1.20;90.33;102253.97;6265248;28;20048;-67
2021/03/05 04:02:40;;;;;;;5.35;1.55;;;;;;;-1.32;90.74;102255.50;6273592;28;20049;-67
2021/03/05 04:05:44;;;;;;;7.47;2.30;;;;;;;-1.27;91.19;102255.56;6273482;28;20147;-67
2021/03/05 04:08:46;;;;;;;10.95;2.40;;;;;;;-1.30;91.37;102261.53;6271645;28;20041;-67
2021/03/05 04:11:47;;;;;;;7.30;1.92;;;;;;;-1.37;91.50;102253.63;6273105;28;20513;-67
2021/03/05 04:14:48;;;;;;;12.40;2.90;;;;;;;-1.39;90.64;102263.06;6273550;28;20554;-67
2021/03/05 04:17:50;;;;;;;10.98;2.25;;;;;;;-1.42;90.95;102261.28;6273400;28;20429;-67
2021/03/05 04:20:52;;;;;;;11.40;2.10;;;;;;;-1.40;91.08;102263.91;6273102;28;20056;-67
2021/03/05 04:23:53;;;;;;;7.75;2.20;;;;;;;-1.45;91.76;102266.38;6273120;28;20413;-67
2021/03/05 04:26:54;;;;;;;15.13;2.22;;;;;;;-1.45;91.69;102265.50;6273328;28;20055;-67
2021/03/05 04:29:55;;;;;;;11.27;2.22;;;;;;;-1.48;91.49;102270.59;6271946;28;20428;-66
2021/03/05 04:32:56;;;;;;;5.63;1.60;;;;;;;-1.52;91.81;102276.53;6270918;28;20073;-67
2021/03/05 04:35:58;;;;;;;7.03;1.92;;;;;;;-1.51;93.13;102276.56;6272893;28;20083;-67
2021/03/05 04:38:58;;;;;;;9.32;1.80;;;;;;;-1.51;91.99;102281.72;6272773;28;20060;-67
2021/03/05 04:41:59;;;;;;;14.57;2.45;;;;;;;-1.49;92.40;102285.22;6272564;28;20052;-67
2021/03/05 04:45:01;;;;;;;15.68;2.20;;;;;;;-1.53;91.48;102291.13;6272777;28;20505;-67
2021/03/05 04:48:02;;;;;;;13.13;2.83;;;;;;;-1.50;90.67;102283.44;6272583;28;20041;-67
2021/03/05 04:51:04;;;;;;;15.30;2.50;;;;;;;-1.59;92.31;102293.56;6272090;28;20049;-67
2021/03/05 04:54:05;;;;;;;12.75;2.13;;;;;;;-1.59;93.27;102294.47;6272527;28;20493;-67
2021/03/05 04:57:06;;;;;;;14.82;2.78;;;;;;;-1.58;93.40;102295.31;6272376;28;20045;-67
2021/03/05 05:00:08;;;;;;;9.05;2.85;;;;;;;-1.55;93.03;102293.66;6272153;28;20049;-67
2021/03/05 05:03:09;;;;;;;19.83;2.85;;;;;;;-1.53;93.23;102301.44;6264083;28;20060;-67
2021/03/05 05:06:11;;;;;;;11.10;2.40;;;;;;;-1.55;92.53;102314.28;6247315;28;20497;-67
2021/03/05 05:09:12;;;;;;;8.38;1.83;;;;;;;-1.60;92.83;102318.47;6247398;28;20072;-67
2021/03/05 05:12:13;;;;;;;9.10;2.53;;;;;;;-1.57;92.10;102321.13;6246882;28;20049;-67
2021/03/05 05:15:15;;;;;;;6.72;2.15;;;;;;;-1.68;92.48;102327.75;6247291;28;20091;-67
2021/03/05 05:18:16;;;;;;;11.88;2.45;;;;;;;-1.69;92.41;102328.56;6247135;28;20506;-66
2021/03/05 05:21:18;;;;;;;5.75;2.47;;;;;;;-1.69;92.72;102331.16;6246983;28;20049;-67
2021/03/05 05:24:19;;;;;;;6.90;1.70;;;;;;;-1.60;92.08;102333.94;6246976;28;20050;-67
2021/03/05 05:27:19;;;;;;;7.60;2.08;;;;;;;-1.57;90.73;102335.72;6246944;28;20057;-67
2021/03/05 05:30:21;;;;;;;4.93;1.70;;;;;;;-1.68;90.85;102340.66;6246829;28;20073;-67
2021/03/05 05:33:22;;;;;;;11.80;2.28;;;;;;;-1.72;91.41;102346.56;6247577;28;20103;-67
2021/03/05 05:36:24;;;;;;;7.20;2.25;;;;;;;-1.95;92.31;102358.00;6246987;28;20042;-67
2021/03/05 05:39:25;;;;;;;9.85;2.00;;;;;;;-1.93;92.97;102369.25;6246786;28;20049;-67
2021/03/05 05:42:26;;;;;;;9.73;1.67;;;;;;;-1.80;92.06;102361.84;6246338;28;20045;-67
2021/03/05 05:45:27;;;;;;;8.02;1.70;;;;;;;-1.93;92.01;102370.09;6246787;28;20411;-67
2021/03/05 05:48:28;;;;;;;8.02;1.67;;;;;;;-1.87;92.41;102377.09;6246900;28;20049;-67
2021/03/05 05:51:33;;;;;;;6.68;1.92;;;;;;;-2.02;92.57;102385.34;6246320;28;20054;-67
2021/03/05 05:54:35;;;;;;;5.25;1.77;;;;;;;-1.96;92.47;102385.47;6246849;28;20061;-67
2021/03/05 05:57:38;;;;;;;4.15;1.77;;;;;;;-2.01;92.89;102375.91;6246598;28;20111;-67
2021/03/05 06:00:39;;;;;;;12.20;2.53;;;;;;;-1.82;92.13;102381.56;6246562;28;20049;-66
2021/03/05 06:03:40;;;;;;;6.15;2.00;;;;;;;-1.94;91.91;102385.53;6247543;28;20056;-66
2021/03/05 06:06:42;;;;;;;10.32;2.17;;;;;;;-1.86;92.65;102387.47;6246390;28;20092;-66
2021/03/05 06:09:43;;;;;;;17.35;2.50;;;;;;;-1.92;91.95;102389.00;6246447;28;20052;-67
2021/03/05 06:12:47;;;;;;;8.00;2.20;;;;;;;-1.86;91.74;102397.78;6246030;28;20049;-67
2021/03/05 06:16:15;;;;;;;11.95;2.25;;;;;;;-1.95;92.24;102397.56;6246424;28;20049;-66
2021/03/05 06:19:17;;;;;;;5.90;2.03;;;;;;;-1.96;92.48;102402.66;6251723;28;20116;-67
2021/03/05 06:22:21;;;;;;;10.43;2.10;;;;;;;-1.96;92.10;102412.94;6260808;28;20171;-67
2021/03/05 06:25:34;;;;;;;11.93;2.45;;;;;;;-1.99;92.38;102420.63;6253619;28;20179;-67
2021/03/05 06:28:35;;;;;;;9.45;2.42;;;;;;;-1.87;91.48;102418.31;6246114;28;20053;-67
2021/03/05 06:31:36;;;;;;;5.95;1.90;;;;;;;-1.97;92.78;102421.50;6253092;28;20473;-66
2021/03/05 06:34:45;;;;;;;9.65;3.28;;;;;;;-1.85;92.33;102435.59;6251774;28;20520;-67
2021/03/05 06:37:48;;;;;;;12.48;2.45;;;;;;;-1.84;91.99;102439.03;6245972;28;20056;-67
2021/03/05 06:41:12;;;;;;;7.30;2.58;;;;;;;-1.80;91.67;102444.28;6245909;28;20041;-67
2021/03/05 06:44:13;;;;;;;6.97;2.10;;;;;;;-1.78;91.09;102449.47;6246004;28;20057;-67
2021/03/05 06:47:16;;;;;;;10.65;2.50;;;;;;;-1.79;91.12;102458.91;6246124;28;20104;-67
2021/03/05 06:50:21;;;;;;;14.20;2.92;;;;;;;-1.87;91.63;102463.00;6245671;28;20054;-67
2021/03/05 06:53:24;;;;;;;12.73;2.83;;;;;;;-1.85;91.17;102460.47;6289157;23;20045;-71
2021/03/05 06:56:26;;;;;;;5.57;2.33;;;;;;;-1.72;91.68;102471.97;6264185;28;20442;-72
2021/03/05 06:59:35;;;;;;;9.05;2.67;;;;;;;-1.81;91.79;102470.91;6250303;28;20053;-71
2021/03/05 07:02:36;;;;;;;12.90;2.85;;;;;;;-1.82;91.82;102464.00;6249937;28;20431;-70
2021/03/05 07:05:47;;;;;;;15.93;3.13;;;;;;;-1.66;91.15;102472.97;6225698;28;20537;-72
2021/03/05 07:08:48;;;;;;;7.88;2.63;;;;;;;-1.66;91.39;102478.13;6225736;28;20046;-72
2021/03/05 07:11:51;;;;;;;16.90;3.78;;;;;;;-1.75;91.78;102488.22;6225145;28;20108;-72
2021/03/05 07:15:03;;;;;;;12.43;2.63;;;;;;;-1.67;91.21;102493.56;6225493;28;20495;-72
2021/03/05 07:18:05;;;;;;;9.20;2.83;;;;;;;-1.68;92.39;102494.38;6225359;28;20077;-73
2021/03/05 07:21:08;;;;;;;9.73;2.58;;;;;;;-1.39;90.78;102503.72;6242661;28;20457;-71
2021/03/05 07:24:12;;;;;;;8.32;2.22;;;;;;;-1.40;89.72;102499.41;6240159;28;20049;-70
2021/03/05 07:27:13;;;;;;;9.50;2.83;;;;;;;-1.52;90.27;102501.69;6241066;28;20093;-71
2021/03/05 07:30:18;;;;;;;10.02;2.78;;;;;;;-1.51;90.38;102508.56;6236975;28;20046;-72
2021/03/05 07:33:23;;;;;;;9.40;2.65;;;;;;;-1.51;91.57;102510.28;6234284;28;20048;-70
2021/03/05 07:36:30;;;;;;;13.32;3.22;;;;;;;-1.34;90.23;102509.00;6236490;28;20054;-70
2021/03/05 07:39:35;;;;;;;8.88;2.45;;;;;;;-1.19;89.03;102514.50;6234419;28;20046;-71
2021/03/05 07:42:38;;;;;;;4.80;1.77;;;;;;;-1.21;88.83;102518.75;6235869;28;20050;-71
2021/03/05 07:45:39;;;;;;;9.00;3.17;;;;;;;-1.35;89.84;102514.97;6235237;28;20396;-71
2021/03/05 07:48:41;;;;;;;7.32;2.50;;;;;;;-1.14;90.16;102519.75;6235041;28;20441;-71
2021/03/05 07:51:43;;;;;;;8.38;2.70;;;;;;;-1.24;89.85;102522.97;6234143;28;20053;-72
2021/03/05 07:54:51;;;;;;;10.27;2.65;;;;;;;-1.22;91.12;102535.06;6235521;28;20046;-71
2021/03/05 07:57:52;;;;;;;9.20;2.88;;;;;;;-1.18;90.59;102531.75;6238776;28;20045;-69
2021/03/05 08:00:54;;;;;;;8.95;2.50;;;;;;;-1.03;91.25;102538.97;6248887;28;20069;-68
2021/03/05 08:03:55;;;;;;;9.07;2.95;;;;;;;-0.99;89.70;102538.19;6246990;28;20065;-69
2021/03/05 08:07:09;;;;;;;10.75;3.00;;;;;;;-0.99;89.16;102532.16;6248724;28;20045;-70
2021/03/05 08:10:35;;;;;;;8.00;2.85;;;;;;;-0.96;90.44;102542.53;6248512;28;20410;-69
2021/03/05 08:13:46;;;;;;;15.52;2.35;;;;;;;-0.90;90.47;102532.38;6248636;28;20049;-72
2021/03/05 08:16:48;;;;;;;13.10;2.83;;;;;;;-0.82;89.60;102543.72;6248401;28;20048;-72
2021/03/05 08:19:49;;;;;;;10.95;3.03;;;;;;;-0.88;89.88;102541.88;6247903;28;20049;-71
2021/03/05 08:23:04;;;;;;;6.90;2.13;;;;;;;-0.81;90.20;102546.34;6248156;28;20057;-73
2021/03/05 08:26:06;;;;;;;11.30;2.97;;;;;;;-0.64;88.60;102543.25;6235432;28;20053;-73
2021/03/05 08:29:07;;;;;;;13.20;2.50;;;;;;;-0.62;87.37;102547.63;6246200;28;20070;-72
2021/03/05 08:32:44;;;;;;;11.13;2.17;;;;;;;-0.76;88.94;102556.78;6247054;28;20057;-71
2021/03/05 08:35:50;;;;;;;13.77;2.15;;;;;;;-0.68;88.38;102563.00;6242705;28;20057;-70
2021/03/05 08:38:50;;;;;;;14.90;2.78;;;;;;;-0.53;88.75;102565.91;6248101;28;20055;-71
2021/03/05 08:42:24;;;;;;;10.73;2.65;;;;;;;-0.47;87.46;102567.72;6237101;28;20041;-71
2021/03/05 08:45:28;;;;;;;5.88;2.30;;;;;;;-0.41;87.99;102567.88;6223101;28;20060;-68
2021/03/05 08:48:35;;;;;;;13.98;2.50;;;;;;;-0.46;88.37;102571.19;6223361;28;20046;-70
2021/03/05 08:51:42;;;;;;;10.70;2.55;;;;;;;-0.42;87.82;102573.88;6221463;28;20049;-69
2021/03/05 08:54:43;;;;;;;5.85;2.38;;;;;;;-0.35;88.24;102574.88;6223291;28;20593;-72
2021/03/05 08:57:46;;;;;;;9.95;3.00;;;;;;;-0.12;87.51;102575.34;6222905;28;20086;-72
2021/03/05 09:00:49;;;;;;;10.15;2.60;;;;;;;-0.17;87.07;102579.56;6247290;28;20096;-72
2021/03/05 09:03:50;;;;;;;11.02;2.70;;;;;;;-0.12;86.78;102588.28;6245530;28;20052;-71
2021/03/05 09:06:52;;;;;;;4.30;1.77;;;;;;;-0.15;87.06;102589.06;6247474;28;20052;-71
2021/03/05 09:09:53;;;;;;;12.18;2.10;;;;;;;0.13;85.66;102592.19;6247394;28;20084;-71
2021/03/05 09:12:56;;;;;;;10.93;2.97;;;;;;;0.06;85.37;102588.63;6246928;28;20128;-71
2021/03/05 09:15:59;;;;;;;10.75;2.75;;;;;;;0.19;85.76;102590.63;6246916;28;20502;-72
2021/03/05 09:19:00;;;;;;;8.13;2.38;;;;;;;0.09;86.35;102591.28;6247132;28;20049;-72
2021/03/05 09:22:06;;;;;;;4.80;2.28;;;;;;;0.08;86.95;102594.69;6247086;28;20049;-73
2021/03/05 09:25:10;;;;;;;10.52;4.30;;;;;;;0.23;86.71;102600.19;6246930;28;20057;-72
2021/03/05 09:28:11;;;;;;;8.25;2.67;;;;;;;0.35;85.76;102603.81;6246872;28;20053;-72
2021/03/05 09:31:14;;;;;;;16.27;3.20;;;;;;;0.45;84.98;102601.44;6246540;28;20426;-71
2021/03/05 09:34:15;;;;;;;9.35;3.08;;;;;;;0.64;84.47;102604.38;6246109;28;20525;-71
2021/03/05 09:37:17;;;;;;;9.82;2.38;;;;;;;0.79;83.74;102598.59;6245730;28;20049;-72
2021/03/05 09:40:18;;;;;;;16.02;5.03;;;;;;;0.79;83.20;102614.09;6236513;28;20046;-72
2021/03/05 09:43:19;;;;;;;7.30;2.75;;;;;;;0.90;83.56;102622.91;6224847;28;20049;-73
2021/03/05 09:46:22;;;;;;;11.02;2.53;;;;;;;0.95;82.92;102622.16;6246749;28;20049;-72
2021/03/05 09:49:25;;;;;;;10.40;3.08;;;;;;;0.90;83.44;102628.09;6246563;28;20080;-72
2021/03/05 09:52:26;;;;;;;7.80;2.22;;;;;;;0.99;81.79;102642.06;6246088;28;20072;-73
2021/03/05 09:55:28;;;;;;;13.55;3.10;;;;;;;0.93;82.78;102646.25;6246538;28;20053;-72
2021/03/05 09:58:30;;;;;;;15.82;2.45;;;;;;;1.17;81.79;102643.19;6246343;28;20569;-72
2021/03/05 10:01:33;;;;;;;10.10;2.28;;;;;;;1.37;79.98;102646.13;6244771;28;20133;-72
2021/03/05 10:04:42;;;;;;;14.13;2.95;;;;;;;1.31;80.21;102648.59;6238464;28;20076;-72
2021/03/05 10:07:42;;;;;;;11.93;1.92;;;;;;;1.45;81.31;102660.94;6246469;28;20050;-72
2021/03/05 10:11:01;;;;;;;9.45;2.15;;;;;;;1.60;79.24;102662.88;6246286;28;20045;-72
2021/03/05 10:14:04;;;;;;;8.13;1.80;;;;;;;1.56;78.50;102655.91;6238711;28;20049;-73
2021/03/05 10:17:09;;;;;;;4.57;2.10;;;;;;;1.48;80.19;102665.28;6222139;28;20065;-72
2021/03/05 10:20:11;;;;;;;4.32;1.80;;;;;;;1.84;77.67;102677.91;6221634;28;20410;-72
2021/03/05 10:23:12;;;;;;;5.50;1.98;;;;;;;1.68;78.65;102681.09;6221422;28;20426;-72
2021/03/05 10:26:22;;;;;;;5.18;1.88;;;;;;;1.72;78.21;102677.72;6221782;28;20053;-71
2021/03/05 10:29:23;;;;;;;9.95;1.90;;;;;;;1.88;77.34;102676.22;6224742;28;20046;-73
2021/03/05 10:32:27;;;;;;;3.63;1.55;;;;;;;2.02;74.79;102674.69;6227172;28;20041;-73
2021/03/05 10:35:28;;;;;;;5.85;1.58;;;;;;;2.13;72.70;102683.44;6226298;28;20050;-72
2021/03/05 10:38:29;;;;;;;15.82;1.80;;;;;;;2.09;73.74;102679.09;6226509;28;20053;-73
2021/03/05 10:41:30;;;;;;;4.85;2.17;;;;;;;2.10;74.43;102679.97;6225855;28;20056;-72
2021/03/05 10:44:32;;;;;;;6.28;1.45;;;;;;;2.16;73.67;102685.22;6226339;28;20068;-73
2021/03/05 10:47:35;;;;;;;6.07;1.73;;;;;;;2.45;73.81;102678.69;6228617;28;20053;-73
2021/03/05 10:50:36;;;;;;;8.68;1.42;;;;;;;2.59;71.57;102683.13;6250610;28;20049;-71
2021/03/05 10:53:37;;;;;;;12.13;1.80;;;;;;;2.43;72.55;102695.94;6250081;28;20072;-71
2021/03/05 10:56:38;;;;;;;4.10;1.50;;;;;;;2.67;70.26;102690.13;6250638;28;20108;-72
2021/03/05 10:59:39;;;;;;;10.50;1.65;;;;;;;2.64;71.12;102691.84;6250464;28;20494;-73
2021/03/05 11:02:41;;;;;;;7.03;1.77;;;;;;;2.82;68.15;102684.25;6248277;28;20423;-72
2021/03/05 11:05:42;;;;;;;8.38;1.50;;;;;;;3.00;67.98;102693.97;6250465;28;20061;-74
2021/03/05 11:08:43;;;;;;;5.97;1.35;;;;;;;3.11;66.34;102697.50;6250033;28;20048;-72
2021/03/05 11:11:44;;;;;;;5.50;1.13;;;;;;;3.06;64.46;102696.59;6249861;28;20049;-71
2021/03/05 11:14:45;;;;;;;9.70;1.75;;;;;;;3.12;65.76;102707.03;6249901;28;20060;-71
2021/03/05 11:17:47;;;;;;;3.65;1.08;;;;;;;3.30;66.99;102704.59;6250070;28;20461;-71
2021/03/05 11:20:48;;;;;;;3.55;1.23;;;;;;;3.61;61.54;102694.44;6249606;28;20049;-72
2021/03/05 11:23:49;;;;;;;4.93;1.30;;;;;;;3.48;61.84;102698.66;6249890;28;20057;-70
2021/03/05 11:26:50;;;;;;;5.85;1.08;;;;;;;3.72;67.80;102710.97;6249844;28;20054;-72
2021/03/05 11:29:51;;;;;;;3.70;0.88;;;;;;;3.93;62.94;102710.25;6249901;28;20474;-70
2021/03/05 11:32:53;;;;;;;6.32;1.15;;;;;;;4.15;56.32;102710.38;6248472;28;20083;-71
2021/03/05 11:35:53;;;;;;;4.13;1.50;;;;;;;4.13;57.03;102705.13;6248965;28;20453;-70
2021/03/05 11:38:54;;;;;;;5.65;1.17;;;;;;;4.07;58.51;102695.56;6249250;28;20095;-69
2021/03/05 11:41:55;;;;;;;3.97;1.10;;;;;;;4.41;55.49;102715.69;6249059;28;20049;-71
2021/03/05 11:44:56;;;;;;;3.75;1.10;;;;;;;4.48;55.69;102707.03;6249512;28;20049;-70
2021/03/05 11:47:58;;;;;;;5.28;1.25;;;;;;;4.58;55.56;102707.03;6243625;28;20107;-70
2021/03/05 11:50:59;;;;;;;10.98;1.58;;;;;;;4.67;56.67;102711.41;6224413;28;20050;-71
2021/03/05 11:53:59;;;;;;;4.50;0.90;;;;;;;4.96;53.19;102701.06;6224663;28;20050;-71
2021/03/05 11:57:00;;;;;;;10.20;1.73;;;;;;;4.97;56.25;102699.34;6224774;28;20494;-73
2021/03/05 12:00:01;;;;;;;6.07;1.35;;;;;;;5.34;57.32;102703.69;6224466;28;20053;-72
2021/03/05 12:03:04;;;;;;;5.05;1.42;;;;;;;5.56;53.42;102701.94;6224049;28;20050;-72
2021/03/05 12:06:05;;;;;;;3.60;1.23;;;;;;;5.80;50.56;102702.78;6245953;28;20544;-72
2021/03/05 12:09:06;;;;;;;4.35;1.10;;;;;;;5.69;50.55;102699.31;6248593;28;20042;-73
2021/03/05 12:12:08;;;;;;;3.05;1.05;;;;;;;5.34;51.60;102695.88;6226883;28;20056;-72
2021/03/05 12:15:09;;;;;;;6.05;1.10;;;;;;;5.50;51.32;102714.13;6224059;28;20061;-71
2021/03/05 12:18:11;;;;;;;5.50;1.00;;;;;;;5.44;52.17;102707.16;6224136;28;20049;-71
2021/03/05 12:21:12;;;;;;;2.53;0.90;;;;;;;5.92;51.95;102704.53;6223669;28;20081;-72
2021/03/05 12:24:13;;;;;;;5.63;1.10;;;;;;;6.00;49.27;102706.25;6224063;28;20076;-70
2021/03/05 12:27:14;;;;;;;1.95;0.90;;;;;;;6.01;49.95;102699.28;6223894;28;20050;-71
2021/03/05 12:30:15;;;;;;;5.15;1.50;;;;;;;6.40;47.49;102700.00;6223895;28;20474;-70
2021/03/05 12:33:17;;;;;;;2.20;1.10;;;;;;;6.19;46.26;102699.22;6235473;28;20076;-70
2021/03/05 12:36:18;;;;;;;8.35;2.30;;;;;;;6.10;47.46;102705.34;6246317;28;20097;-70
2021/03/05 12:39:19;;;;;;;4.03;1.10;;;;;;;6.02;47.28;102698.41;6248291;28;20057;-71
2021/03/05 12:42:20;;;;;;;4.00;1.25;;;;;;;6.15;45.34;102697.50;6247624;28;20054;-72
2021/03/05 12:45:21;;;;;;;3.25;0.90;;;;;;;6.52;44.90;102695.59;6248127;28;20084;-71
2021/03/05 12:48:22;;;;;;;3.35;0.77;;;;;;;6.68;46.94;102695.53;6247654;28;20045;-69
2021/03/05 12:51:23;;;;;;;3.78;0.98;;;;;;;6.75;47.06;102694.59;6266628;23;20399;-78
2021/03/05 12:54:24;;;;;;;4.43;0.73;;;;;;;6.95;44.47;102697.97;6247594;28;20057;-70
2021/03/05 12:57:25;;;;;;;3.75;1.23;;;;;;;7.22;42.66;102690.75;6231858;28;20050;-72
2021/03/05 13:00:27;;;;;;;4.72;0.98;;;;;;;7.20;42.07;102700.38;6228573;28;20045;-72
2021/03/05 13:03:28;;;;;;;5.60;0.80;;;;;;;7.02;41.04;102699.63;6243969;28;20069;-70
2021/03/05 13:06:29;;;;;;;3.45;0.80;;;;;;;6.70;44.45;102698.97;6223012;28;20081;-70
2021/03/05 13:09:30;;;;;;;4.25;0.70;;;;;;;7.02;45.12;102688.31;6222997;28;20158;-71
2021/03/05 13:12:31;;;;;;;3.88;0.88;;;;;;;7.30;42.12;102686.34;6222454;28;20060;-72
2021/03/05 13:15:32;;;;;;;5.95;1.00;;;;;;;7.34;39.92;102693.28;6223051;28;20108;-72
2021/03/05 13:18:33;;;;;;;1.17;0.70;;;;;;;7.38;42.45;102692.38;6222665;28;20053;-72
2021/03/05 13:21:34;;;;;;;2.60;0.77;;;;;;;7.26;41.85;102688.09;6222638;28;20506;-72
2021/03/05 13:24:35;;;;;;;4.30;1.00;;;;;;;7.53;42.38;102697.47;6222563;28;20049;-72
2021/03/05 13:27:36;;;;;;;0.90;0.50;;;;;;;7.43;40.84;102682.75;6222888;28;20061;-72
2021/03/05 13:30:37;;;;;;;3.55;0.80;;;;;;;7.56;43.27;102694.84;6222503;28;20089;-73
2021/03/05 13:33:39;;;;;;;1.88;0.80;;;;;;;7.85;40.65;102693.66;6235532;28;20053;-73
2021/03/05 13:36:40;;;;;;;0.82;0.55;;;;;;;7.72;39.58;102689.44;6247087;28;20046;-72
2021/03/05 13:39:41;;;;;;;3.75;0.77;;;;;;;7.70;38.84;102692.06;6246787;28;20049;-73
2021/03/05 13:42:42;;;;;;;0.88;0.50;;;;;;;7.61;37.05;102689.56;6246716;28;20052;-71
2021/03/05 13:45:43;;;;;;;1.58;0.73;;;;;;;7.33;38.64;102688.94;6246696;28;20049;-70
2021/03/05 13:48:45;;;;;;;2.50;0.80;;;;;;;7.51;39.12;102696.63;6242370;28;20081;-71
2021/03/05 13:51:46;;;;;;;4.03;0.65;;;;;;;7.48;38.04;102699.25;6246155;28;20135;-71
2021/03/05 13:54:46;;;;;;;3.75;0.90;;;;;;;7.56;37.47;102693.97;6246867;28;20129;-72
2021/03/05 13:57:47;;;;;;;2.28;0.77;;;;;;;7.65;37.61;102693.00;6246685;28;20053;-72
2021/03/05 14:00:48;;;;;;;4.10;0.90;;;;;;;7.86;36.78;102695.41;6246110;28;20053;-72
2021/03/05 14:03:50;;;;;;;1.92;0.70;;;;;;;7.82;37.62;102699.81;6252954;28;20484;-72
2021/03/05 14:06:51;;;;;;;4.88;0.73;;;;;;;7.89;38.93;102698.84;6250486;28;20055;-75
2021/03/05 14:09:52;;;;;;;3.08;0.73;;;;;;;7.85;36.95;102689.28;6253393;28;20046;-74
2021/03/05 14:12:53;;;;;;;5.00;0.68;;;;;;;8.12;36.27;102697.72;6245860;28;20543;-74
2021/03/05 14:15:53;;;;;;;1.35;0.68;;;;;;;7.88;36.68;102691.03;6254578;28;20407;-73